createdAt,value
2019-01-17T00:07:40.270Z,6.20
2019-01-17T00:10:39.857Z,6.20
2019-01-17T00:13:46.032Z,6.10
2019-01-17T00:17:02.334Z,6.20
2019-01-17T00:19:54.748Z,6.20
2019-01-17T00:22:56.598Z,6.20
2019-01-17T00:25:56.116Z,6.10
2019-01-17T00:35:24.035Z,6.20
2019-01-17T00:38:24.095Z,6.20
2019-01-17T00:41:23.278Z,6.20
2019-01-17T00:44:26.132Z,6.40
2019-01-17T00:47:25.425Z,6.10
2019-01-17T00:50:25.421Z,6.20
2019-01-17T00:53:24.610Z,6.20
2019-01-17T00:56:30.401Z,6.30
2019-01-17T00:59:30.594Z,6.30
2019-01-17T01:02:30.544Z,6.30
2019-01-17T01:05:29.895Z,6.30
2019-01-17T01:08:29.799Z,6.30
2019-01-17T01:11:21.994Z,6.30
2019-01-17T01:14:38.002Z,6.30
2019-01-17T01:17:30.598Z,6.30
2019-01-17T01:20:29.991Z,6.30
2019-01-17T01:23:32.626Z,6.30
2019-01-17T01:26:32.194Z,6.20
2019-01-17T01:29:31.378Z,6.30
2019-01-17T01:32:29.956Z,6.40
2019-01-17T01:35:48.008Z,6.40
2019-01-17T01:41:55.519Z,6.40
2019-01-17T01:44:55.503Z,6.10
2019-01-17T01:47:36.408Z,6.30
2019-01-17T01:50:39.427Z,6.30
2019-01-17T01:53:21.492Z,6.30
2019-01-17T01:58:49.310Z,6.20
2019-01-17T02:01:31.807Z,6.20
2019-01-17T02:04:13.828Z,6.20
2019-01-17T02:07:01.450Z,6.30
2019-01-17T02:09:48.702Z,6.20
2019-01-17T02:15:37.541Z,6.20
2019-01-17T02:18:21.948Z,6.30
2019-01-17T02:24:16.168Z,6.20
2019-01-17T02:27:29.846Z,6.30
2019-01-17T02:32:36.977Z,6.30
2019-01-17T02:35:22.414Z,6.30
2019-01-17T02:38:11.605Z,6.30
2019-01-17T02:46:57.017Z,6.30
2019-01-17T02:58:07.392Z,6.20
2019-01-17T03:13:52.814Z,6.10
2019-01-17T03:27:19.305Z,5.90
2019-01-17T03:30:00.654Z,5.90
2019-01-17T03:32:40.909Z,5.80
2019-01-17T03:35:21.405Z,5.70
2019-01-17T03:38:03.704Z,5.80
2019-01-17T03:40:49.262Z,5.80
2019-01-17T03:43:30.640Z,5.70
2019-01-17T03:46:11.224Z,5.70
2019-01-17T03:48:56.390Z,5.70
2019-01-17T03:51:37.770Z,5.70
2019-01-17T03:54:17.843Z,5.70
2019-01-17T03:59:43.632Z,5.60
2019-01-17T04:02:27.635Z,5.60
2019-01-17T04:05:12.632Z,5.50
2019-01-17T04:07:54.424Z,5.40
2019-01-17T04:10:29.488Z,5.40
2019-01-17T04:13:34.429Z,5.40
2019-01-17T04:18:50.858Z,5.20
2019-01-17T04:24:14.371Z,5.20
2019-01-17T04:26:56.858Z,5.10
2019-01-17T04:29:36.769Z,5.20
2019-01-17T04:32:16.855Z,5.20
2019-01-17T04:35:00.857Z,5.00
2019-01-17T04:37:43.189Z,5.10
2019-01-17T04:40:23.342Z,5.00
2019-01-17T04:43:07.737Z,5.00
2019-01-17T04:45:48.365Z,5.00
2019-01-17T04:48:27.965Z,4.90
2019-01-17T04:51:09.467Z,5.00
2019-01-17T04:59:27.071Z,4.90
2019-01-17T05:07:42.871Z,4.80
2019-01-17T05:10:23.463Z,4.80
2019-01-17T05:13:04.685Z,4.90
2019-01-17T05:15:44.522Z,4.90
2019-01-17T05:21:10.881Z,4.80
2019-01-17T05:26:35.251Z,4.80
2019-01-17T05:29:15.485Z,4.90
2019-01-17T05:31:55.771Z,4.90
2019-01-17T05:34:23.418Z,4.80
2019-01-17T05:37:10.817Z,4.90
2019-01-17T05:39:57.869Z,4.90
2019-01-17T05:42:38.631Z,4.80
2019-01-17T05:45:18.754Z,4.70
2019-01-17T05:47:58.484Z,4.70
2019-01-17T05:53:24.333Z,4.80
2019-01-17T05:56:04.277Z,4.70
2019-01-17T05:58:47.754Z,4.50
2019-01-17T06:04:17.774Z,4.60
2019-01-17T06:06:57.777Z,4.70
2019-01-17T06:09:37.833Z,4.90
2019-01-17T06:12:21.812Z,5.10
2019-01-17T06:17:46.667Z,5.30
2019-01-17T06:20:30.489Z,5.50
2019-01-17T06:25:53.957Z,5.50
2019-01-17T06:31:17.060Z,5.70
2019-01-17T06:33:59.447Z,5.80
2019-01-17T06:36:43.448Z,5.80
2019-01-17T06:39:11.147Z,5.90
2019-01-17T06:42:20.638Z,5.90
2019-01-17T06:45:07.755Z,5.90
2019-01-17T06:47:47.885Z,5.90
2019-01-17T06:53:14.520Z,5.90
2019-01-17T07:04:16.619Z,5.70
2019-01-17T07:18:07.170Z,5.80
2019-01-17T07:36:42.452Z,5.60
2019-01-17T07:39:10.679Z,5.50
2019-01-17T07:41:44.571Z,5.50
2019-01-17T07:44:20.567Z,5.40
2019-01-17T07:46:47.954Z,5.40
2019-01-17T07:49:18.686Z,5.40
2019-01-17T07:51:46.589Z,5.40
2019-01-17T07:54:15.764Z,5.40
2019-01-17T07:56:43.434Z,5.40
2019-01-17T07:59:16.220Z,5.40
2019-01-17T08:01:48.898Z,5.40
2019-01-17T08:04:26.050Z,5.40
2019-01-17T08:06:58.008Z,5.40
2019-01-17T08:09:32.263Z,5.40
2019-01-17T08:12:05.129Z,5.40
2019-01-17T08:14:38.908Z,5.40
2019-01-17T08:17:41.401Z,5.40
2019-01-17T08:20:35.190Z,5.40
2019-01-17T08:22:53.911Z,5.40
2019-01-17T08:25:47.527Z,5.40
2019-01-17T08:28:31.069Z,5.40
2019-01-17T08:31:12.514Z,5.50
2019-01-17T08:34:28.155Z,5.40
2019-01-17T08:37:43.772Z,5.40
2019-01-17T08:40:22.147Z,5.40
2019-01-17T08:43:08.704Z,5.40
2019-01-17T08:46:01.117Z,5.40
2019-01-17T08:48:42.132Z,5.40
2019-01-17T08:51:58.735Z,5.40
2019-01-17T08:54:59.174Z,5.50
2019-01-17T08:57:43.669Z,5.40
2019-01-17T09:00:16.537Z,5.50
2019-01-17T09:03:01.302Z,5.50
2019-01-17T09:12:10.991Z,5.50
2019-01-17T09:14:40.955Z,5.50
2019-01-17T09:17:49.944Z,5.40
2019-01-17T09:20:22.054Z,5.40
2019-01-17T09:22:52.178Z,5.40
2019-01-17T09:25:26.448Z,5.30
2019-01-17T09:27:56.977Z,5.30
2019-01-17T09:30:30.890Z,5.30
2019-01-17T09:33:01.211Z,5.30
2019-01-17T09:35:34.022Z,5.20
2019-01-17T09:38:02.027Z,5.20
2019-01-17T09:40:37.047Z,5.20
2019-01-17T09:43:08.685Z,5.20
2019-01-17T09:45:36.378Z,5.10
2019-01-17T09:48:11.489Z,5.00
2019-01-17T09:50:41.146Z,5.00
2019-01-17T09:53:08.809Z,4.90
2019-01-17T09:55:37.348Z,4.90
2019-01-17T09:58:04.934Z,4.90
2019-01-17T10:00:35.833Z,4.90
2019-01-17T10:03:05.166Z,4.80
2019-01-17T10:05:32.850Z,4.90
2019-01-17T10:08:09.121Z,4.90
2019-01-17T10:10:36.951Z,4.90
2019-01-17T10:13:11.184Z,5.00
2019-01-17T10:15:50.400Z,5.00
2019-01-17T10:18:48.291Z,5.00
2019-01-17T10:21:57.191Z,5.10
2019-01-17T10:25:12.116Z,5.10
2019-01-17T10:28:26.778Z,5.20
2019-01-17T10:31:31.776Z,5.20
2019-01-17T10:35:04.051Z,5.40
2019-01-17T10:37:44.632Z,5.40
2019-01-17T10:40:50.638Z,5.50
2019-01-17T10:43:49.494Z,5.50
2019-01-17T10:46:51.202Z,5.40
2019-01-17T10:49:52.759Z,5.40
2019-01-17T10:53:30.132Z,5.50
2019-01-17T10:56:55.433Z,5.50
2019-01-17T10:59:52.452Z,5.50
2019-01-17T11:02:46.214Z,5.60
2019-01-17T11:05:49.146Z,5.60
2019-01-17T11:08:39.675Z,5.70
2019-01-17T11:11:30.415Z,5.70
2019-01-17T11:14:24.008Z,5.70
2019-01-17T11:17:41.269Z,5.60
2019-01-17T11:20:28.895Z,5.60
2019-01-17T11:23:34.308Z,5.60
2019-01-17T11:26:34.349Z,5.60
2019-01-17T11:29:30.107Z,5.60
2019-01-17T11:32:51.732Z,5.70
2019-01-17T11:36:06.664Z,5.70
2019-01-17T11:39:10.599Z,5.60
2019-01-17T11:42:08.081Z,5.50
2019-01-17T11:45:16.162Z,5.50
2019-01-17T11:48:21.764Z,5.50
2019-01-17T11:51:12.479Z,5.70
2019-01-17T11:54:23.405Z,5.70
2019-01-17T11:57:21.789Z,5.80
2019-01-17T12:00:20.558Z,5.50
2019-01-17T12:03:13.894Z,5.30
2019-01-17T12:05:41.556Z,5.10
2019-01-17T12:08:11.222Z,5.00
2019-01-17T12:10:41.834Z,4.90
2019-01-17T12:13:09.482Z,4.80
2019-01-17T12:15:37.084Z,4.50
2019-01-17T12:18:05.832Z,4.50
2019-01-17T12:20:33.482Z,4.40
2019-01-17T12:23:01.792Z,4.30
2019-01-17T12:25:29.452Z,4.40
2019-01-17T12:28:07.400Z,4.40
2019-01-17T12:30:35.074Z,4.50
2019-01-17T12:33:02.721Z,4.60
2019-01-17T12:35:30.378Z,4.70
2019-01-17T12:37:57.992Z,4.60
2019-01-17T12:40:25.640Z,4.60
2019-01-17T12:42:53.283Z,4.70
2019-01-17T12:45:21.072Z,4.70
2019-01-17T12:47:51.758Z,4.80
2019-01-17T12:50:19.535Z,4.80
2019-01-17T12:52:47.138Z,4.90
2019-01-17T12:55:15.013Z,4.90
2019-01-17T12:57:42.779Z,5.00
2019-01-17T13:00:14.130Z,5.00
2019-01-17T13:02:41.760Z,4.90
2019-01-17T13:05:09.451Z,4.90
2019-01-17T13:07:37.124Z,4.90
2019-01-17T13:10:06.090Z,4.80
2019-01-17T13:12:33.892Z,4.60
2019-01-17T13:15:01.530Z,4.50
2019-01-17T13:17:29.232Z,4.20
2019-01-17T13:19:56.781Z,4.00
2019-01-17T13:22:24.361Z,3.90
2019-01-17T13:24:51.976Z,3.90
2019-01-17T13:27:20.551Z,4.00
2019-01-17T13:29:48.226Z,4.00
2019-01-17T13:32:20.419Z,4.10
2019-01-17T13:34:53.164Z,4.20
2019-01-17T13:37:22.149Z,4.30
2019-01-17T13:39:54.200Z,4.20
2019-01-17T13:42:39.903Z,4.20
2019-01-17T13:45:10.107Z,4.30
2019-01-17T13:47:47.101Z,4.30
2019-01-17T13:54:08.691Z,4.40
2019-01-17T13:57:10.811Z,4.50
2019-01-17T14:00:01.431Z,4.60
2019-01-17T14:02:52.092Z,4.60
2019-01-17T14:05:37.614Z,4.90
2019-01-17T14:08:26.888Z,5.00
2019-01-17T14:11:04.277Z,5.00
2019-01-17T14:13:49.651Z,4.90
2019-01-17T14:16:23.125Z,4.90
2019-01-17T14:19:35.545Z,4.90
2019-01-17T14:22:05.691Z,4.50
2019-01-17T14:24:33.469Z,4.40
2019-01-17T14:27:17.171Z,4.30
2019-01-17T14:29:47.487Z,4.30
2019-01-17T14:32:21.111Z,4.50
2019-01-17T14:38:05.502Z,4.80
2019-01-17T14:40:39.631Z,4.90
2019-01-17T14:43:14.092Z,4.80
2019-01-17T14:45:46.627Z,4.70
2019-01-17T14:48:29.220Z,4.80
2019-01-17T14:51:14.523Z,4.80
2019-01-17T14:57:22.112Z,4.80
2019-01-17T14:59:57.977Z,4.80
2019-01-17T15:02:35.461Z,4.80
2019-01-17T15:09:21.164Z,4.70
2019-01-17T15:16:45.819Z,4.70
2019-01-17T15:20:13.204Z,4.70
2019-01-17T15:26:39.809Z,4.60
2019-01-17T15:29:23.400Z,4.60
2019-01-17T15:32:48.704Z,4.60
2019-01-17T15:36:13.553Z,4.60
2019-01-17T15:39:31.400Z,4.60
2019-01-17T15:46:37.039Z,4.30
2019-01-17T15:53:11.837Z,3.90
2019-01-17T16:17:20.800Z,4.00
2019-01-17T16:32:04.221Z,4.00
2019-01-17T16:38:32.937Z,4.20
2019-01-17T16:51:25.563Z,3.30
2019-01-17T17:44:34.723Z,3.20
2019-01-17T17:53:10.241Z,3.30
2019-01-17T18:12:58.014Z,3.20
2019-01-17T18:27:52.698Z,3.00
2019-01-17T19:11:06.094Z,2.90
2019-01-17T19:18:21.898Z,2.50
2019-01-17T19:25:26.949Z,2.50
2019-01-17T19:56:20.545Z,2.60
2019-01-17T19:59:58.641Z,2.70
2019-01-17T20:09:12.821Z,2.80
